Time;durP1;ratioP1;P1;durP2;ratioP2;P2;SDS_P1;SDS_P2;PMS_P1;PMS_P2;Temp;Humidity;BMP_temperature;BMP_pressure;BME280_temperature;BME280_humidity;BME280_pressure;Samples;Min_cycle;Max_cycle;Signal;HPM_P1;HPM_P2
2022/07/27 00:00:51;;;;;;;3.20;2.42;;;15.90;99.90;;;;;;5020327;28;20105;-68
2022/07/27 00:03:18;;;;;;;4.05;1.10;;;15.80;99.90;;;;;;5026451;28;20114;-67
2022/07/27 00:05:45;;;;;;;4.72;1.00;;;15.80;99.90;;;;;;5026769;28;20065;-69
2022/07/27 00:08:12;;;;;;;4.95;1.67;;;15.80;99.90;;;;;;5032434;28;20128;-68
2022/07/27 00:10:39;;;;;;;1.17;1.13;;;15.80;99.90;;;;;;5051046;28;20107;-69
2022/07/27 00:13:06;;;;;;;3.67;1.10;;;15.70;99.90;;;;;;5035201;28;20231;-71
2022/07/27 00:15:33;;;;;;;1.90;1.10;;;15.70;99.90;;;;;;5041131;28;20045;-66
2022/07/27 00:18:01;;;;;;;6.57;1.60;;;15.70;99.90;;;;;;5042764;28;20144;-71
2022/07/27 00:20:28;;;;;;;5.43;1.65;;;15.70;99.90;;;;;;5033175;28;20057;-71
2022/07/27 00:22:55;;;;;;;7.95;1.67;;;15.60;99.90;;;;;;5044336;28;20101;-68
2022/07/27 00:25:23;;;;;;;3.67;1.08;;;15.60;99.90;;;;;;5037843;28;20054;-66
2022/07/27 00:27:50;;;;;;;9.82;3.13;;;15.60;99.90;;;;;;5045279;28;20041;-69
2022/07/27 00:30:18;;;;;;;2.85;1.00;;;15.60;99.90;;;;;;5041265;28;20514;-66
2022/07/27 00:32:45;;;;;;;6.05;1.33;;;15.60;99.90;;;;;;5042597;28;20641;-66
2022/07/27 00:35:11;;;;;;;7.72;2.00;;;15.50;99.90;;;;;;5042256;28;20076;-67
2022/07/27 00:37:39;;;;;;;3.97;1.75;;;15.50;99.90;;;;;;5045175;28;20045;-67
2022/07/27 00:40:06;;;;;;;3.00;1.20;;;15.40;99.90;;;;;;5040974;28;20053;-68
2022/07/27 00:42:34;;;;;;;3.67;1.20;;;15.40;99.90;;;;;;5041760;28;20445;-69
2022/07/27 00:45:02;;;;;;;5.70;1.92;;;15.40;99.90;;;;;;5036375;28;20096;-66
2022/07/27 00:47:30;;;;;;;5.10;1.55;;;15.40;99.90;;;;;;5045725;28;20049;-67
2022/07/27 00:49:58;;;;;;;4.47;1.77;;;15.40;99.90;;;;;;5040443;28;20455;-69
2022/07/27 00:52:26;;;;;;;4.15;0.95;;;15.40;99.90;;;;;;5039099;28;20052;-70
2022/07/27 00:54:53;;;;;;;3.80;1.25;;;15.40;99.90;;;;;;5041650;28;20720;-71
2022/07/27 00:57:21;;;;;;;5.47;1.00;;;15.30;99.90;;;;;;5029661;28;21295;-66
2022/07/27 00:59:48;;;;;;;13.65;1.70;;;15.40;99.90;;;;;;5039160;28;20171;-66
2022/07/27 01:02:15;;;;;;;4.18;1.25;;;15.30;99.90;;;;;;5036461;28;20541;-66
2022/07/27 01:04:45;;;;;;;3.15;1.27;;;15.30;99.90;;;;;;5031108;28;20116;-66
2022/07/27 01:07:14;;;;;;;5.10;1.55;;;15.30;99.90;;;;;;5040110;28;20037;-66
2022/07/27 01:09:56;;;;;;;4.35;1.38;;;15.20;99.90;;;;;;5032574;28;20042;-70
2022/07/27 01:12:27;;;;;;;2.33;1.17;;;15.20;99.90;;;;;;5037868;28;20094;-69
2022/07/27 01:14:56;;;;;;;6.17;1.90;;;15.30;99.90;;;;;;5030752;28;20053;-68
2022/07/27 01:17:25;;;;;;;2.80;1.50;;;15.30;99.90;;;;;;5026000;28;20270;-67
2022/07/27 01:19:53;;;;;;;9.05;1.52;;;15.30;99.90;;;;;;5029537;28;20050;-66
2022/07/27 01:22:19;;;;;;;3.90;1.20;;;15.30;99.90;;;;;;5023412;28;20507;-67
2022/07/27 01:24:48;;;;;;;4.50;1.33;;;15.30;99.90;;;;;;5029241;28;20136;-64
2022/07/27 01:27:15;;;;;;;6.32;1.00;;;15.30;99.90;;;;;;5034998;28;20041;-68
2022/07/27 01:29:43;;;;;;;4.32;1.40;;;15.30;99.90;;;;;;5043692;28;20108;-66
2022/07/27 01:32:10;;;;;;;2.60;0.95;;;15.30;99.90;;;;;;5041038;28;20036;-70
2022/07/27 01:34:36;;;;;;;5.05;1.40;;;15.30;99.90;;;;;;5039737;28;20555;-67
2022/07/27 01:37:04;;;;;;;6.45;1.15;;;15.30;99.90;;;;;;5030079;28;20104;-68
2022/07/27 01:39:32;;;;;;;6.93;1.52;;;15.20;99.90;;;;;;5037312;28;20045;-67
2022/07/27 01:41:59;;;;;;;6.28;1.35;;;15.20;99.90;;;;;;5026850;28;20163;-69
2022/07/27 01:44:26;;;;;;;3.03;1.55;;;15.20;99.90;;;;;;5036190;28;20073;-66
2022/07/27 01:46:53;;;;;;;2.95;1.27;;;15.20;99.90;;;;;;5035974;28;20409;-68
2022/07/27 01:49:20;;;;;;;5.60;1.38;;;15.20;99.90;;;;;;5034091;28;20095;-67
2022/07/27 01:51:48;;;;;;;3.70;0.90;;;15.20;99.90;;;;;;5036952;28;20115;-65
2022/07/27 01:54:14;;;;;;;2.78;1.23;;;15.20;99.90;;;;;;5042210;28;20445;-69
2022/07/27 01:56:42;;;;;;;4.63;2.55;;;15.20;99.90;;;;;;5040947;28;20092;-66
2022/07/27 01:59:08;;;;;;;8.65;1.42;;;15.20;99.90;;;;;;5033496;28;20430;-68
2022/07/27 02:01:43;;;;;;;2.85;1.65;;;15.20;99.90;;;;;;5039462;28;20037;-65
2022/07/27 02:04:11;;;;;;;2.20;1.00;;;15.20;99.90;;;;;;5034576;28;20047;-72
2022/07/27 02:06:38;;;;;;;2.92;1.05;;;15.20;99.90;;;;;;5040359;28;20067;-70
2022/07/27 02:09:05;;;;;;;6.30;0.93;;;15.10;99.90;;;;;;5039523;28;20128;-67
2022/07/27 02:14:18;;;;;;;3.38;1.45;;;15.10;99.90;;;;;;5032992;28;20087;-66
2022/07/27 02:16:47;;;;;;;4.32;1.45;;;15.20;99.90;;;;;;5037271;28;20076;-67
2022/07/27 02:19:17;;;;;;;4.45;1.52;;;15.10;99.90;;;;;;5023758;28;20063;-68
2022/07/27 02:21:44;;;;;;;4.80;1.45;;;15.10;99.90;;;;;;5038640;28;20557;-66
2022/07/27 02:24:11;;;;;;;5.40;1.38;;;15.10;99.90;;;;;;5037890;28;20079;-67
2022/07/27 02:26:38;;;;;;;3.70;1.13;;;15.10;99.90;;;;;;5040930;28;20099;-67
2022/07/27 02:29:05;;;;;;;3.58;1.45;;;15.10;99.90;;;;;;5028790;28;20489;-68
2022/07/27 02:31:32;;;;;;;5.85;1.52;;;15.10;99.90;;;;;;5031452;28;20049;-67
2022/07/27 02:33:59;;;;;;;4.53;1.42;;;15.10;99.90;;;;;;5038677;28;20583;-67
2022/07/27 02:36:29;;;;;;;5.05;1.10;;;15.10;99.90;;;;;;5036361;28;20053;-68
2022/07/27 02:38:57;;;;;;;4.50;1.40;;;15.10;99.90;;;;;;5033330;28;20045;-67
2022/07/27 02:41:24;;;;;;;4.40;1.45;;;15.10;99.90;;;;;;5033750;28;20052;-67
2022/07/27 02:43:51;;;;;;;6.93;2.25;;;15.10;99.90;;;;;;5037335;28;20518;-71
2022/07/27 02:46:18;;;;;;;4.90;1.10;;;15.10;99.90;;;;;;5038833;28;20363;-67
2022/07/27 02:48:45;;;;;;;5.47;1.30;;;15.00;99.90;;;;;;5037933;28;20041;-69
2022/07/27 02:51:13;;;;;;;6.35;1.23;;;15.00;99.90;;;;;;5039943;28;20071;-69
2022/07/27 02:53:41;;;;;;;10.05;1.60;;;15.00;99.90;;;;;;5038315;28;20037;-67
2022/07/27 02:56:08;;;;;;;4.63;1.00;;;15.00;99.90;;;;;;5037050;28;20087;-70
2022/07/27 02:58:35;;;;;;;3.70;2.47;;;15.00;99.90;;;;;;5036373;28;20045;-66
2022/07/27 03:01:03;;;;;;;6.55;1.98;;;15.00;99.90;;;;;;5028985;28;20097;-66
2022/07/27 03:03:31;;;;;;;3.50;0.90;;;15.00;99.90;;;;;;5037647;28;20119;-66
2022/07/27 03:06:07;;;;;;;5.57;1.73;;;15.00;99.90;;;;;;5037474;28;20041;-66
2022/07/27 03:08:35;;;;;;;5.80;1.45;;;15.00;99.90;;;;;;5025263;28;20069;-66
2022/07/27 03:11:02;;;;;;;2.20;1.20;;;15.00;99.90;;;;;;5037828;28;20041;-68
2022/07/27 03:13:29;;;;;;;8.85;2.10;;;15.00;99.90;;;;;;5039198;28;20100;-68
2022/07/27 03:15:57;;;;;;;3.38;1.33;;;15.00;99.90;;;;;;5035526;28;20108;-68
2022/07/27 03:18:24;;;;;;;4.93;1.35;;;15.10;99.90;;;;;;5039361;28;20044;-65
2022/07/27 03:20:51;;;;;;;4.03;1.10;;;15.10;99.90;;;;;;5036572;28;20053;-70
2022/07/27 03:23:18;;;;;;;7.65;1.30;;;15.10;99.90;;;;;;5035170;28;20147;-71
2022/07/27 03:25:45;;;;;;;11.48;2.75;;;15.10;99.90;;;;;;5035811;28;20072;-69
2022/07/27 03:28:12;;;;;;;3.67;1.17;;;15.10;99.90;;;;;;5038866;28;20586;-66
2022/07/27 03:30:39;;;;;;;3.30;1.17;;;15.00;99.90;;;;;;5037646;28;20134;-70
2022/07/27 03:33:06;;;;;;;8.55;2.35;;;15.00;99.90;;;;;;5031986;28;20083;-67
2022/07/27 03:35:33;;;;;;;3.42;1.48;;;15.00;99.90;;;;;;5041921;28;20476;-66
2022/07/27 03:38:00;;;;;;;4.65;1.10;;;14.90;99.90;;;;;;5038430;28;20049;-72
2022/07/27 03:40:31;;;;;;;4.55;1.42;;;14.90;99.90;;;;;;5030530;28;20045;-67
2022/07/27 03:42:59;;;;;;;7.65;1.85;;;14.90;99.90;;;;;;5037028;28;20450;-69
2022/07/27 03:45:26;;;;;;;4.72;2.03;;;14.90;99.90;;;;;;5039608;28;20068;-72
2022/07/27 03:47:53;;;;;;;4.43;1.60;;;14.90;99.90;;;;;;5037856;28;20029;-70
2022/07/27 03:50:21;;;;;;;6.30;1.88;;;14.90;99.90;;;;;;5035143;28;20049;-69
2022/07/27 03:52:49;;;;;;;6.63;1.42;;;15.00;99.90;;;;;;5027054;28;20507;-71
2022/07/27 03:55:16;;;;;;;3.20;1.25;;;15.00;99.90;;;;;;5036529;28;20152;-67
2022/07/27 03:57:42;;;;;;;5.70;0.93;;;15.00;99.90;;;;;;5031555;28;20076;-67
2022/07/27 04:00:11;;;;;;;7.20;1.70;;;15.00;99.90;;;;;;5038200;28;20835;-70
2022/07/27 04:02:39;;;;;;;3.42;1.00;;;15.00;99.90;;;;;;5037534;28;20597;-72
2022/07/27 04:05:07;;;;;;;10.40;2.30;;;14.90;99.90;;;;;;5037944;28;20135;-68
2022/07/27 04:07:34;;;;;;;6.28;1.75;;;14.90;99.90;;;;;;5043897;28;20040;-67
2022/07/27 04:10:01;;;;;;;8.55;2.15;;;14.90;99.90;;;;;;5042280;28;21272;-66
2022/07/27 04:12:29;;;;;;;3.30;1.83;;;14.90;99.90;;;;;;5037936;28;20041;-67
2022/07/27 04:14:57;;;;;;;3.30;1.10;;;15.00;99.90;;;;;;5027985;28;20057;-67
2022/07/27 04:17:24;;;;;;;5.90;1.70;;;15.00;99.90;;;;;;5034328;28;20680;-67
2022/07/27 04:20:11;;;;;;;7.65;1.15;;;15.00;99.90;;;;;;5041466;28;20122;-68
2022/07/27 04:22:40;;;;;;;1.88;0.85;;;15.00;99.90;;;;;;5042874;28;20045;-69
2022/07/27 04:25:07;;;;;;;6.97;1.10;;;15.00;99.90;;;;;;5040048;28;20057;-67
2022/07/27 04:27:34;;;;;;;1.45;0.80;;;15.00;99.90;;;;;;5034741;28;20115;-68
2022/07/27 04:30:01;;;;;;;6.40;1.10;;;15.00;99.90;;;;;;5030048;28;20510;-68
2022/07/27 04:32:34;;;;;;;4.55;1.00;;;15.10;99.90;;;;;;5042440;28;20064;-68
2022/07/27 04:35:01;;;;;;;4.68;1.42;;;15.10;99.90;;;;;;5038521;28;20065;-66
2022/07/27 04:37:29;;;;;;;3.15;1.45;;;15.10;99.90;;;;;;5041016;28;20076;-66
2022/07/27 04:39:57;;;;;;;3.72;1.13;;;15.10;99.90;;;;;;5040614;28;20064;-72
2022/07/27 04:42:24;;;;;;;3.78;2.38;;;15.10;99.90;;;;;;5036632;28;20459;-66
2022/07/27 04:44:51;;;;;;;6.78;1.10;;;15.20;99.90;;;;;;5038499;28;20052;-66
2022/07/27 04:47:17;;;;;;;2.10;1.42;;;15.20;99.90;;;;;;5030585;28;20058;-68
2022/07/27 04:49:44;;;;;;;4.55;1.58;;;15.20;99.90;;;;;;5038405;28;20072;-68
2022/07/27 04:52:14;;;;;;;5.05;1.25;;;15.20;99.90;;;;;;5027473;28;20045;-68
2022/07/27 04:54:42;;;;;;;1.42;1.30;;;15.30;99.90;;;;;;5041750;28;20409;-66
2022/07/27 04:57:09;;;;;;;3.70;1.67;;;15.20;99.90;;;;;;5042419;28;20410;-69
2022/07/27 04:59:36;;;;;;;4.60;1.88;;;15.30;99.90;;;;;;5049755;28;20049;-68
2022/07/27 05:02:03;;;;;;;5.00;1.40;;;15.30;99.90;;;;;;5032864;28;20048;-69
2022/07/27 05:04:30;;;;;;;5.72;1.63;;;15.20;99.90;;;;;;5044734;28;20223;-66
2022/07/27 05:06:57;;;;;;;3.72;1.50;;;15.20;99.90;;;;;;5032549;28;20367;-68
2022/07/27 05:09:24;;;;;;;4.85;1.38;;;15.20;99.90;;;;;;5030746;28;20134;-66
2022/07/27 05:11:51;;;;;;;1.95;1.02;;;15.30;99.90;;;;;;5036480;28;20813;-66
2022/07/27 05:14:18;;;;;;;4.50;1.13;;;15.30;99.90;;;;;;5034515;28;20280;-67
2022/07/27 05:16:48;;;;;;;3.08;2.15;;;15.30;99.90;;;;;;5032103;28;20048;-67
2022/07/27 05:19:15;;;;;;;4.93;1.25;;;15.30;99.90;;;;;;5041679;28;20041;-66
2022/07/27 05:21:42;;;;;;;6.68;1.40;;;15.40;99.90;;;;;;5042707;28;20045;-71
2022/07/27 05:24:09;;;;;;;5.70;2.47;;;15.40;99.90;;;;;;5031049;28;20466;-67
2022/07/27 05:26:37;;;;;;;3.53;1.08;;;15.40;99.90;;;;;;5032616;28;20045;-67
2022/07/27 05:29:04;;;;;;;2.88;0.85;;;15.30;99.90;;;;;;5027164;28;20879;-67
2022/07/27 05:31:31;;;;;;;3.35;1.08;;;15.30;99.90;;;;;;5036005;28;20133;-66
2022/07/27 05:33:58;;;;;;;2.42;1.50;;;15.30;99.90;;;;;;5031500;28;20056;-71
2022/07/27 05:36:25;;;;;;;2.60;1.65;;;15.30;99.90;;;;;;5036550;28;20041;-67
2022/07/27 05:38:52;;;;;;;5.57;1.52;;;15.30;99.90;;;;;;5035487;28;20076;-66
2022/07/27 05:41:24;;;;;;;1.17;0.93;;;15.30;99.90;;;;;;5035335;28;20382;-71
2022/07/27 05:43:51;;;;;;;1.75;0.85;;;15.30;99.90;;;;;;5034135;28;20793;-66
2022/07/27 05:46:18;;;;;;;2.90;1.20;;;15.20;99.90;;;;;;5029994;28;20136;-71
2022/07/27 05:48:45;;;;;;;5.28;1.20;;;15.30;99.90;;;;;;5035148;28;20574;-72
2022/07/27 05:51:12;;;;;;;6.28;1.45;;;15.30;99.90;;;;;;5020605;28;20064;-67
2022/07/27 05:53:39;;;;;;;2.97;0.93;;;15.30;99.90;;;;;;5035630;28;20049;-70
2022/07/27 05:56:10;;;;;;;9.65;3.22;;;15.30;99.90;;;;;;5023347;28;20053;-68
2022/07/27 05:58:37;;;;;;;3.80;1.13;;;15.40;99.90;;;;;;5032701;28;20060;-66
2022/07/27 06:01:04;;;;;;;4.80;2.45;;;15.40;99.90;;;;;;5023527;28;20554;-69
2022/07/27 06:03:31;;;;;;;3.65;1.63;;;15.30;99.90;;;;;;5034018;28;20408;-71
2022/07/27 06:08:43;;;;;;;4.45;1.20;;;15.30;99.90;;;;;;5041624;28;20075;-71
2022/07/27 06:11:10;;;;;;;5.18;1.70;;;15.30;99.90;;;;;;5039814;28;20455;-68
2022/07/27 06:13:37;;;;;;;4.32;1.27;;;15.30;99.90;;;;;;5033403;28;20057;-74
2022/07/27 06:16:09;;;;;;;1.35;0.82;;;15.20;99.90;;;;;;5035072;28;20041;-67
2022/07/27 06:18:36;;;;;;;2.85;1.38;;;15.20;99.90;;;;;;5034855;28;20048;-70
2022/07/27 06:21:03;;;;;;;5.35;1.00;;;15.20;99.90;;;;;;5032023;28;20711;-67
2022/07/27 06:23:30;;;;;;;4.93;1.50;;;15.30;99.90;;;;;;5037070;28;20694;-69
2022/07/27 06:25:58;;;;;;;5.57;1.05;;;15.30;99.90;;;;;;5030481;28;20514;-70
2022/07/27 06:28:25;;;;;;;3.13;1.35;;;15.40;99.90;;;;;;5031357;28;20041;-71
2022/07/27 06:30:52;;;;;;;4.35;1.20;;;15.50;99.90;;;;;;5037116;28;20049;-70
2022/07/27 06:33:26;;;;;;;6.18;1.23;;;15.50;99.90;;;;;;5024871;28;20053;-67
2022/07/27 06:35:55;;;;;;;3.97;1.50;;;15.60;99.90;;;;;;5025828;28;20125;-67
2022/07/27 06:38:23;;;;;;;1.40;0.50;;;15.70;99.90;;;;;;5036337;28;20479;-66
2022/07/27 06:40:53;;;;;;;4.43;1.90;;;15.70;99.90;;;;;;5030145;28;20076;-66
2022/07/27 06:43:21;;;;;;;;;;;15.80;99.90;;;;;;5028604;28;20482;-70
2022/07/27 06:45:48;;;;;;;6.07;1.30;;;15.80;99.90;;;;;;5033016;28;20302;-68
2022/07/27 06:48:16;;;;;;;3.78;1.40;;;15.80;99.90;;;;;;5033755;28;20070;-67
2022/07/27 06:50:43;;;;;;;1.90;1.02;;;15.80;99.90;;;;;;5031761;28;20115;-70
2022/07/27 06:53:10;;;;;;;3.00;1.55;;;15.80;99.90;;;;;;5030324;28;20136;-67
2022/07/27 06:55:37;;;;;;;2.45;0.90;;;15.80;99.90;;;;;;5035393;28;20122;-67
2022/07/27 06:58:04;;;;;;;3.30;1.55;;;15.80;99.90;;;;;;5038191;28;20155;-66
2022/07/27 07:00:31;;;;;;;2.08;0.82;;;15.90;99.90;;;;;;5030528;28;20076;-67
2022/07/27 07:03:01;;;;;;;3.22;1.52;;;16.00;99.90;;;;;;5024252;28;20427;-69
2022/07/27 07:05:29;;;;;;;8.88;1.40;;;16.10;99.90;;;;;;5022010;28;20087;-67
2022/07/27 07:07:57;;;;;;;2.85;0.93;;;16.10;99.90;;;;;;5020923;28;20136;-67
2022/07/27 07:10:25;;;;;;;3.83;1.85;;;16.10;99.90;;;;;;5035073;28;20120;-72
2022/07/27 07:12:56;;;;;;;4.35;1.05;;;16.00;99.90;;;;;;5021581;28;20049;-67
2022/07/27 07:15:25;;;;;;;2.55;0.90;;;16.10;99.90;;;;;;5021182;28;20054;-67
2022/07/27 07:17:53;;;;;;;5.10;1.55;;;16.10;99.90;;;;;;5035355;28;20108;-68
2022/07/27 07:20:20;;;;;;;3.63;1.42;;;16.10;99.90;;;;;;5034338;28;20045;-67
2022/07/27 07:22:47;;;;;;;5.75;1.15;;;16.00;99.90;;;;;;5033609;28;20045;-66
2022/07/27 07:25:14;;;;;;;4.90;1.63;;;16.10;99.90;;;;;;5025875;28;20111;-66
2022/07/27 07:27:41;;;;;;;3.97;1.15;;;16.10;99.90;;;;;;5032308;28;20136;-67
2022/07/27 07:30:08;;;;;;;1.90;0.75;;;16.10;99.90;;;;;;5038214;28;20134;-66
2022/07/27 07:32:35;;;;;;;2.90;1.02;;;16.20;99.90;;;;;;5040386;28;20144;-70
2022/07/27 07:35:03;;;;;;;2.83;0.93;;;16.30;99.90;;;;;;5036404;28;20158;-66
2022/07/27 07:37:31;;;;;;;2.58;0.85;;;16.30;99.90;;;;;;5034886;28;20067;-68
2022/07/27 07:40:00;;;;;;;3.45;1.40;;;16.30;99.90;;;;;;5028152;28;20037;-67
2022/07/27 07:42:56;;;;;;;2.75;1.42;;;16.30;99.90;;;;;;5036283;28;20045;-70
2022/07/27 07:45:23;;;;;;;5.15;1.48;;;16.10;99.90;;;;;;5038424;28;20076;-66
2022/07/27 07:47:51;;;;;;;3.53;0.88;;;16.10;99.90;;;;;;5046436;28;20191;-74
2022/07/27 07:50:19;;;;;;;4.50;1.35;;;16.20;99.90;;;;;;5042825;28;20049;-71
2022/07/27 07:52:51;;;;;;;5.57;1.10;;;16.30;99.90;;;;;;5040510;28;20037;-67
2022/07/27 07:55:19;;;;;;;1.65;0.95;;;16.30;99.90;;;;;;5032912;28;20925;-66
2022/07/27 07:57:47;;;;;;;2.58;1.05;;;16.30;99.90;;;;;;5040523;28;20048;-70
2022/07/27 08:00:17;;;;;;;4.43;1.27;;;16.20;99.90;;;;;;5034885;28;20044;-68
2022/07/27 08:02:56;;;;;;;6.10;1.02;;;16.20;99.90;;;;;;5039553;28;20114;-67
2022/07/27 08:05:24;;;;;;;1.02;0.75;;;16.20;99.90;;;;;;5039479;28;20139;-66
2022/07/27 08:07:53;;;;;;;1.08;0.80;;;16.20;99.90;;;;;;5044950;28;20469;-68
2022/07/27 08:10:21;;;;;;;3.67;0.80;;;16.20;99.90;;;;;;5045892;28;20118;-73
2022/07/27 08:12:51;;;;;;;4.30;0.95;;;16.30;99.90;;;;;;5037079;28;20610;-68
2022/07/27 08:15:18;;;;;;;;;;;16.30;99.90;;;;;;5044323;28;20119;-67
2022/07/27 08:17:45;;;;;;;1.70;0.80;;;16.40;99.90;;;;;;5042526;28;20014;-66
2022/07/27 08:20:14;;;;;;;2.90;0.70;;;16.50;99.90;;;;;;5031879;28;20135;-69
2022/07/27 08:22:41;;;;;;;1.33;0.95;;;16.60;99.90;;;;;;5041305;28;20045;-68
2022/07/27 08:25:10;;;;;;;2.00;0.85;;;16.80;99.90;;;;;;5024944;28;20374;-68
2022/07/27 08:27:38;;;;;;;1.20;0.63;;;16.90;99.90;;;;;;5028761;28;20037;-71
2022/07/27 08:30:09;;;;;;;2.37;0.80;;;17.00;99.90;;;;;;5036228;28;20164;-68
2022/07/27 08:32:58;;;;;;;1.75;0.93;;;16.90;99.90;;;;;;5042340;28;20132;-68
2022/07/27 08:35:26;;;;;;;1.58;1.27;;;16.70;99.90;;;;;;5033879;28;20041;-67
2022/07/27 08:37:54;;;;;;;4.97;1.13;;;16.50;99.90;;;;;;5034134;28;20037;-67
2022/07/27 08:40:21;;;;;;;1.02;0.60;;;16.40;99.90;;;;;;5031332;28;20132;-68
2022/07/27 08:43:09;;;;;;;3.00;1.00;;;16.30;99.90;;;;;;5023934;28;20128;-67
2022/07/27 08:45:36;;;;;;;1.50;1.35;;;16.20;99.90;;;;;;5038336;28;20424;-67
2022/07/27 08:48:04;;;;;;;1.67;0.50;;;16.20;99.90;;;;;;5036591;28;20421;-67
2022/07/27 08:50:33;;;;;;;2.15;1.25;;;16.30;99.90;;;;;;5040376;28;20124;-68
2022/07/27 08:53:12;;;;;;;1.67;1.02;;;16.30;99.90;;;;;;5043798;28;20763;-67
2022/07/27 08:55:44;;;;;;;3.10;1.08;;;16.40;99.90;;;;;;5042582;28;20438;-66
2022/07/27 08:58:12;;;;;;;1.73;0.82;;;16.50;99.90;;;;;;5048171;28;20045;-67
2022/07/27 09:00:41;;;;;;;2.08;0.88;;;16.60;99.90;;;;;;5030291;28;20095;-66
2022/07/27 09:03:13;;;;;;;2.20;1.00;;;16.60;99.90;;;;;;5031625;28;20536;-68
2022/07/27 09:05:50;;;;;;;5.15;1.05;;;16.50;99.90;;;;;;5030033;28;20403;-69
2022/07/27 09:08:23;;;;;;;3.35;0.68;;;16.60;99.90;;;;;;5043420;28;20122;-67
2022/07/27 09:10:53;;;;;;;6.72;1.10;;;16.60;99.90;;;;;;5041262;28;20135;-67
2022/07/27 09:13:22;;;;;;;2.08;0.93;;;16.60;99.90;;;;;;5030754;28;20080;-69
2022/07/27 09:15:51;;;;;;;1.30;1.02;;;16.70;99.90;;;;;;5038403;28;20056;-67
2022/07/27 09:18:39;;;;;;;5.65;1.10;;;16.60;99.90;;;;;;5042655;28;20060;-70
2022/07/27 09:21:10;;;;;;;6.82;0.75;;;16.70;99.90;;;;;;5043038;28;20638;-68
2022/07/27 09:23:43;;;;;;;1.80;0.85;;;16.80;99.90;;;;;;5028866;28;20061;-67
2022/07/27 09:26:31;;;;;;;1.92;0.90;;;16.80;99.90;;;;;;5031976;28;20108;-70
2022/07/27 09:29:05;;;;;;;1.35;0.65;;;16.80;99.90;;;;;;5041240;28;20049;-68
2022/07/27 09:31:40;;;;;;;1.63;1.52;;;16.90;99.90;;;;;;5031878;28;20065;-67
2022/07/27 09:34:08;;;;;;;4.95;1.08;;;17.20;99.90;;;;;;5043158;28;20042;-67
2022/07/27 09:36:49;;;;;;;2.10;0.80;;;17.50;99.90;;;;;;5040067;28;20060;-68
2022/07/27 09:39:21;;;;;;;1.15;0.63;;;17.70;99.90;;;;;;5032126;28;20041;-69
2022/07/27 09:41:56;;;;;;;3.67;1.67;;;17.70;99.90;;;;;;5043929;28;20064;-70
2022/07/27 09:44:40;;;;;;;1.13;1.00;;;17.80;99.90;;;;;;5037691;28;20092;-66
2022/07/27 09:47:30;;;;;;;1.80;1.10;;;18.00;99.90;;;;;;5029201;28;20115;-67
2022/07/27 09:50:18;;;;;;;2.97;1.10;;;18.10;99.90;;;;;;5026796;28;20053;-72
2022/07/27 09:52:46;;;;;;;0.73;0.70;;;18.20;99.90;;;;;;5036842;28;20037;-66
2022/07/27 09:55:13;;;;;;;2.55;0.75;;;18.00;99.90;;;;;;5037171;28;20073;-69
2022/07/27 09:57:57;;;;;;;0.82;0.73;;;18.00;99.90;;;;;;5029893;28;20057;-70
2022/07/27 10:00:25;;;;;;;0.80;0.63;;;17.90;99.90;;;;;;5045390;28;20432;-68
2022/07/27 10:02:53;;;;;;;3.33;1.02;;;18.00;99.90;;;;;;5033762;28;20051;-66
2022/07/27 10:05:21;;;;;;;4.13;0.95;;;18.00;99.90;;;;;;5034679;28;20399;-68
2022/07/27 10:07:52;;;;;;;1.73;0.65;;;17.90;99.90;;;;;;5044680;28;20051;-68
2022/07/27 10:10:20;;;;;;;7.93;0.90;;;17.80;99.90;;;;;;5042404;28;20654;-67
2022/07/27 10:12:47;;;;;;;1.73;0.90;;;17.80;99.90;;;;;;5049702;28;20110;-70
2022/07/27 10:15:22;;;;;;;1.42;1.10;;;17.80;99.90;;;;;;5039557;28;21586;-68
2022/07/27 10:17:59;;;;;;;8.45;1.45;;;17.90;99.90;;;;;;5032693;28;20053;-69
2022/07/27 10:20:30;;;;;;;3.78;0.98;;;18.20;99.90;;;;;;5034453;28;20562;-67
2022/07/27 10:22:58;;;;;;;3.40;1.15;;;18.40;99.90;;;;;;5028455;28;20388;-70
2022/07/27 10:25:26;;;;;;;2.50;1.30;;;18.50;99.90;;;;;;5033231;28;20095;-69
2022/07/27 10:28:16;;;;;;;2.30;1.08;;;18.60;99.90;;;;;;5036465;28;20140;-70
2022/07/27 10:30:43;;;;;;;1.85;0.93;;;18.60;99.90;;;;;;5028165;28;20474;-71
2022/07/27 10:33:47;;;;;;;6.10;1.77;;;18.30;99.90;;;;;;5041328;28;20526;-70
2022/07/27 10:36:51;;;;;;;3.20;1.20;;;18.40;99.90;;;;;;5029361;28;20084;-66
2022/07/27 10:39:32;;;;;;;3.28;1.60;;;18.50;99.90;;;;;;5028188;28;20163;-70
2022/07/27 10:42:23;;;;;;;2.17;1.20;;;18.60;99.90;;;;;;5013019;28;20041;-69
2022/07/27 10:45:17;;;;;;;3.30;0.80;;;18.70;99.90;;;;;;5036907;28;20130;-70
2022/07/27 10:47:47;;;;;;;2.05;0.82;;;18.50;99.90;;;;;;5025190;28;20223;-67
2022/07/27 10:50:17;;;;;;;10.30;1.55;;;18.30;99.90;;;;;;5033731;28;20061;-67
2022/07/27 10:52:51;;;;;;;2.65;0.93;;;18.30;99.90;;;;;;5037491;28;20049;-72
2022/07/27 10:55:30;;;;;;;3.92;1.20;;;18.60;99.90;;;;;;5038534;28;20162;-73
2022/07/27 10:58:20;;;;;;;4.93;1.55;;;18.70;99.90;;;;;;5038185;28;20104;-71
2022/07/27 11:00:49;;;;;;;1.50;0.90;;;18.60;99.90;;;;;;5022229;28;20132;-67
2022/07/27 11:03:22;;;;;;;1.70;1.38;;;18.40;99.90;;;;;;5040421;28;20110;-68
2022/07/27 11:05:55;;;;;;;6.63;2.42;;;18.40;99.90;;;;;;5037832;28;20208;-68
2022/07/27 11:08:45;;;;;;;5.95;1.88;;;18.50;99.90;;;;;;5036401;28;20051;-67
2022/07/27 11:11:23;;;;;;;2.63;1.20;;;18.60;99.90;;;;;;5041312;28;20057;-67
2022/07/27 11:13:56;;;;;;;1.95;1.00;;;18.70;99.90;;;;;;5043308;28;20060;-68
2022/07/27 11:16:26;;;;;;;3.22;1.05;;;18.70;99.90;;;;;;5037814;28;20116;-70
2022/07/27 11:19:02;;;;;;;2.25;1.05;;;18.70;99.90;;;;;;5045492;28;20063;-68
2022/07/27 11:21:35;;;;;;;5.32;1.48;;;18.70;99.90;;;;;;5046412;28;20052;-67
2022/07/27 11:24:09;;;;;;;1.67;1.05;;;18.80;99.90;;;;;;5042999;28;20045;-68
2022/07/27 11:26:48;;;;;;;2.72;1.20;;;18.80;99.90;;;;;;5035008;28;20091;-68
2022/07/27 11:29:17;;;;;;;3.88;1.40;;;18.80;99.90;;;;;;5035841;28;20037;-68
2022/07/27 11:31:46;;;;;;;2.63;1.52;;;18.90;99.90;;;;;;5041922;28;20224;-69
2022/07/27 11:34:35;;;;;;;2.20;1.00;;;19.20;99.90;;;;;;5034436;28;20037;-67
2022/07/27 11:37:10;;;;;;;2.53;1.15;;;19.00;99.90;;;;;;5044173;28;20446;-67
2022/07/27 11:39:37;;;;;;;3.38;1.10;;;19.00;99.90;;;;;;5037248;28;20052;-67
2022/07/27 11:42:38;;;;;;;2.63;1.60;;;19.30;99.90;;;;;;5045024;28;20067;-68
2022/07/27 11:45:06;;;;;;;3.28;1.25;;;19.40;99.90;;;;;;5035392;28;20041;-69
2022/07/27 11:47:33;;;;;;;2.55;0.82;;;19.40;99.90;;;;;;5045426;28;20045;-68
2022/07/27 11:50:05;;;;;;;2.55;1.40;;;19.50;99.90;;;;;;5044460;28;20048;-71
2022/07/27 11:52:33;;;;;;;3.92;1.08;;;19.40;99.90;;;;;;5043609;28;20052;-67
2022/07/27 11:55:00;;;;;;;2.22;1.15;;;19.20;99.90;;;;;;5040066;28;20041;-67
2022/07/27 11:57:31;;;;;;;4.38;1.63;;;19.30;99.90;;;;;;5034611;28;20052;-68
2022/07/27 11:59:58;;;;;;;1.75;1.63;;;19.40;99.90;;;;;;5036169;28;20045;-70
2022/07/27 12:02:26;;;;;;;3.80;1.13;;;19.40;99.90;;;;;;5047104;28;20065;-71
2022/07/27 12:04:53;;;;;;;5.55;1.25;;;19.30;99.90;;;;;;5045204;28;20075;-71
2022/07/27 12:07:30;;;;;;;4.65;1.27;;;19.30;99.90;;;;;;5035138;28;20041;-67
2022/07/27 12:10:00;;;;;;;3.33;1.17;;;19.40;99.90;;;;;;5042252;28;20068;-71
2022/07/27 12:12:28;;;;;;;;;;;19.20;99.90;;;;;;5037299;28;20040;-70
2022/07/27 12:14:56;;;;;;;3.65;1.00;;;19.20;99.90;;;;;;5040745;28;20000;-67
2022/07/27 12:17:35;;;;;;;4.07;1.38;;;19.10;99.90;;;;;;5029320;28;20110;-69
2022/07/27 12:20:10;;;;;;;5.75;2.45;;;19.10;99.90;;;;;;5032677;28;20593;-68
2022/07/27 12:22:39;;;;;;;3.70;1.48;;;19.10;99.90;;;;;;5031514;28;20072;-72
2022/07/27 12:25:15;;;;;;;3.53;1.42;;;19.10;99.90;;;;;;5037689;28;20065;-67
2022/07/27 12:27:57;;;;;;;2.17;1.00;;;19.20;99.90;;;;;;5035460;28;20148;-68
2022/07/27 12:30:33;;;;;;;3.22;0.93;;;19.30;99.90;;;;;;5036800;28;20166;-67
2022/07/27 12:33:02;;;;;;;1.60;1.00;;;19.30;99.90;;;;;;5036822;28;20045;-68
2022/07/27 12:35:32;;;;;;;3.58;1.35;;;19.50;99.90;;;;;;5044712;28;20080;-67
2022/07/27 12:38:07;;;;;;;2.35;0.90;;;19.60;99.90;;;;;;5045863;28;20179;-69
2022/07/27 12:40:45;;;;;;;4.90;1.63;;;19.60;99.90;;;;;;5042748;28;20041;-67
2022/07/27 12:43:18;;;;;;;7.53;2.92;;;19.70;99.90;;;;;;5038557;28;20102;-67
2022/07/27 12:45:47;;;;;;;3.25;1.15;;;19.70;99.90;;;;;;5036341;28;20038;-70
2022/07/27 12:48:18;;;;;;;2.27;1.20;;;19.60;99.90;;;;;;5037206;28;20053;-68
2022/07/27 12:50:47;;;;;;;2.50;2.30;;;19.50;99.90;;;;;;5042793;28;20052;-67
2022/07/27 12:53:15;;;;;;;3.13;1.33;;;19.60;99.90;;;;;;5041429;28;20071;-67
2022/07/27 12:55:43;;;;;;;3.53;1.75;;;19.70;99.90;;;;;;5034675;28;20053;-67
2022/07/27 12:58:13;;;;;;;4.50;1.88;;;19.70;99.90;;;;;;5042715;28;20053;-73
2022/07/27 13:00:40;;;;;;;2.92;1.20;;;19.70;99.90;;;;;;5045056;28;20049;-68
2022/07/27 13:03:07;;;;;;;4.28;1.65;;;19.50;99.90;;;;;;5045391;28;20053;-68
2022/07/27 13:05:34;;;;;;;4.70;1.38;;;19.40;99.90;;;;;;5045177;28;20412;-67
2022/07/27 13:08:03;;;;;;;3.95;1.33;;;19.40;99.90;;;;;;5042429;28;20048;-68